KGRB/GRB METAR and TAF weather

Enter ICAO airport designator
Station Type Date Time Source
KGRB METAR 2021/05/14 03:53 UTC NOAA

KGRB 140353Z AUTO 19005KT 10SM CLR 12/01 A3026 RMK AO2 SLP248 T01220011


Station Type Date Time Source
KGRB Decoded METAR 2021/05/14 03:53 UTC NOAA

AUSTIN STRAUBEL INTERNATIONAL AIRPORT , WI, United States (KGRB) 44-29N 088-08W 205M
May 13, 2021 - 11:53 PM EDT / 2021.05.14 0353 UTC
Wind: from the S (190 degrees) at 6 MPH (5 KT):0
Visibility: 10 mile(s):0
Sky conditions: clear
Temperature: 54.0 F (12.2 C)
Dew Point: 34.0 F (1.1 C)
Relative Humidity: 46%
Pressure (altimeter): 30.26 in. Hg (1024 hPa)
ob: KGRB 140353Z AUTO 19005KT 10SM CLR 12/01 A3026 RMK AO2 SLP248 T01220011
cycle: 4

Station Type Date Time Source
KGRB TAF 2021/05/13 18:21 UTC NOAA

TAF KGRB 131720Z 1318/1418 27006KT P6SM SCT080
TEMPO 1318/1322 BKN080
FM132300 16006KT P6SM SCT080
FM140200 24005KT P6SM SKC
FM141500 22008KT P6SM SCT070

Example: see airport list